Hauptseite
METAR-TAF:

METAR-TAF

Flughäfen :

Flughafen Friedrichshafen

Friedrichshafen, Deutschland

Breite: 47-40N, Länge: 009-31E, Höhe: 416 m

Beobachtung

Neuester Wetterbericht von vor 38 Minuten, um 16:20 UTC
Wind 5 kt aus Süd
Temperatur 25°C
Luftfeuchtigkeit 47%
Luftdruck 1019 hPa
Sichtweite 10 km oder mehr
Leicht bewölkt in der Höhe von 4000 ft

METAR: EDNY 151620Z 19005KT 9999 FEW040 25/13 Q1019

Zeit: 18:58 (16:58 UTC)

Prognose

Neuester Wetterbericht von vor 5 Stunden und 58 Minuten, um 11:00 UTC
Gültige Prognose vom 15 um 12 UTC bis 16 um 12 UTC
Wind 5 kt aus Südwest
Sichtweite 10 km oder mehr
Aufgelockert bewölkt in der Höhe von 3500 ft
Übergehend zu
vom 15 um 16 UTC bis 15 um 18 UTC
Wind 2 kt aus unterschiedlichen Richtungen
Übergehend zu
vom 16 um 11 UTC bis 16 um 12 UTC
Wind 5 kt aus Südwest

TAF: EDNY 151100Z 1512/1612 22005KT 9999 SCT035 BECMG 1516/1518 VRB02KT BECMG 1611/1612 23005KT

Wetterbeobachtungen und Prognosen von mehr als 4000 Flughäfen (METAR und TAF Bericht).

Die verfügbaren Stationen werden durch gelbe und rote Markierungen auf der Karte dargestellt.

Führen Sie die Maus auf sie, um den Namen der Station zu sehen.

Darauf klicken, um die Beobachtung von Wetterbeobachtungen und Prognosen zu sehen.

Um die Karte zu ändern : klicken Sie auf den grünen Tasten mit einem schwarzen Kreuz Zum Vergrößern, auf den grünen Button mit einem Gedankenstrich zu verkleinern, oder auf die grünen Pfeile für benachbarte Karten.


METAR-TAF: